FWG15P LCLK-EDDC
Flight info
| Callsign | FWG15P |
|---|---|
| Flight time | 3h 22m |
| Altitude | 34000 |
| Route | PHA M31 GENOS M42 ALKIS UL609 RDS UM601 ADESO UN133 RIGRO/N0455F360 UN133 GIKAS UG18 FSK UN128 RUGAS DCT BAJUN DCT RIGMU DCT TEKNO DCT LIKSA DCT DEKOV |
| Aircraft | A20N/M-SDE2E3FGHIRWXY/LB1 |
Departure
| Time | 2026-05-07 08:56 |
|---|---|
| Airport | Larnaca International Airport (LCLK) |
Arrival
| Time | 2026-05-07 12:19 |
|---|---|
| Airport | Dresden Airport (EDDC) |
| Time | Latitude | Longitude | Altitude | Speed | Heading |
|---|---|---|---|---|---|
| 2026-05-07 08:30 | 34.86834 | 33.60994 | 17 ft | 0 kts | 46° |
| 2026-05-07 08:48 | 34.86827 | 33.60985 | 17 ft | 2 kts | 46° |
| 2026-05-07 08:48 | 34.86816 | 33.60972 | 17 ft | 2 kts | 46° |
| 2026-05-07 08:49 | 34.86806 | 33.60959 | 18 ft | 2 kts | 46° |
| 2026-05-07 08:49 | 34.86796 | 33.60946 | 17 ft | 2 kts | 45° |
| 2026-05-07 08:49 | 34.86785 | 33.60933 | 18 ft | 2 kts | 45° |
| 2026-05-07 08:49 | 34.86777 | 33.60921 | 18 ft | 2 kts | 86° |
| 2026-05-07 08:50 | 34.86782 | 33.60906 | 18 ft | 1 kts | 143° |
| 2026-05-07 08:50 | 34.86793 | 33.60894 | 17 ft | 2 kts | 131° |
| 2026-05-07 08:50 | 34.86804 | 33.60881 | 18 ft | 2 kts | 135° |
| 2026-05-07 08:50 | 34.86807 | 33.60877 | 18 ft | 0 kts | 135° |
| 2026-05-07 08:52 | 34.86800 | 33.60886 | 17 ft | 3 kts | 135° |
| 2026-05-07 08:53 | 34.86766 | 33.60926 | 17 ft | 9 kts | 135° |
| 2026-05-07 08:53 | 34.86716 | 33.60987 | 17 ft | 10 kts | 136° |
| 2026-05-07 08:53 | 34.86662 | 33.61052 | 17 ft | 11 kts | 136° |
| 2026-05-07 08:53 | 34.86594 | 33.61073 | 17 ft | 11 kts | 214° |
| 2026-05-07 08:54 | 34.86524 | 33.61032 | 17 ft | 11 kts | 172° |
| 2026-05-07 08:54 | 34.86480 | 33.61102 | 17 ft | 11 kts | 88° |
| 2026-05-07 08:54 | 34.86483 | 33.61125 | 17 ft | 0 kts | 76° |
| 2026-05-07 08:54 | 34.86483 | 33.61127 | 17 ft | 0 kts | 76° |
| 2026-05-07 08:55 | 34.86485 | 33.61138 | 17 ft | 4 kts | 76° |
| 2026-05-07 08:55 | 34.86508 | 33.61242 | 17 ft | 14 kts | 73° |
| 2026-05-07 08:55 | 34.86548 | 33.61356 | 18 ft | 14 kts | 62° |
| 2026-05-07 08:55 | 34.86598 | 33.61443 | 17 ft | 7 kts | 47° |
| 2026-05-07 08:56 | 34.86760 | 33.61643 | 17 ft | 69 kts | 46° |
| 2026-05-07 08:56 | 34.87264 | 33.62256 | 18 ft | 133 kts | 46° |
| 2026-05-07 08:56 | 34.88043 | 33.63215 | 89 ft | 177 kts | 48° |
| 2026-05-07 08:56 | 34.88919 | 33.64313 | 631 ft | 183 kts | 47° |
| 2026-05-07 08:57 | 34.89772 | 33.65458 | 1362 ft | 184 kts | 49° |
| 2026-05-07 08:57 | 34.90611 | 33.66606 | 2074 ft | 185 kts | 46° |
| 2026-05-07 08:57 | 34.91382 | 33.67927 | 2495 ft | 203 kts | 69° |
| 2026-05-07 08:57 | 34.91409 | 33.69705 | 2873 ft | 226 kts | 106° |
| 2026-05-07 08:58 | 34.90443 | 33.71315 | 3250 ft | 249 kts | 147° |
| 2026-05-07 08:58 | 34.88777 | 33.71873 | 3974 ft | 255 kts | 185° |
| 2026-05-07 08:58 | 34.87145 | 33.71125 | 4724 ft | 255 kts | 222° |
| 2026-05-07 08:58 | 34.86180 | 33.69370 | 5424 ft | 253 kts | 259° |
| 2026-05-07 08:59 | 34.86203 | 33.67254 | 6130 ft | 250 kts | 287° |
| 2026-05-07 08:59 | 34.86658 | 33.65180 | 6863 ft | 253 kts | 287° |
| 2026-05-07 08:59 | 34.87032 | 33.63059 | 7613 ft | 257 kts | 278° |
| 2026-05-07 08:59 | 34.87008 | 33.60848 | 8286 ft | 265 kts | 266° |
| 2026-05-07 09:00 | 34.86743 | 33.58565 | 8705 ft | 281 kts | 263° |
| 2026-05-07 09:00 | 34.86410 | 33.56191 | 9316 ft | 288 kts | 263° |
| 2026-05-07 09:00 | 34.86060 | 33.53786 | 10068 ft | 290 kts | 263° |
| 2026-05-07 09:00 | 34.85710 | 33.51360 | 10721 ft | 295 kts | 263° |
| 2026-05-07 09:01 | 34.85353 | 33.48832 | 11047 ft | 311 kts | 264° |
| 2026-05-07 09:01 | 34.84977 | 33.46162 | 11343 ft | 328 kts | 263° |
| 2026-05-07 09:01 | 34.84584 | 33.43361 | 11630 ft | 344 kts | 263° |
| 2026-05-07 09:01 | 34.84169 | 33.40425 | 11937 ft | 359 kts | 263° |
| 2026-05-07 09:02 | 34.83741 | 33.37410 | 12478 ft | 365 kts | 263° |
| 2026-05-07 09:02 | 34.83308 | 33.34372 | 13169 ft | 366 kts | 263° |
| 2026-05-07 09:02 | 34.82873 | 33.31327 | 13838 ft | 367 kts | 263° |
| 2026-05-07 09:02 | 34.82434 | 33.28266 | 14493 ft | 369 kts | 263° |
| 2026-05-07 09:03 | 34.81994 | 33.25191 | 15111 ft | 370 kts | 264° |
| 2026-05-07 09:03 | 34.81552 | 33.22103 | 15709 ft | 372 kts | 264° |
| 2026-05-07 09:03 | 34.81109 | 33.18998 | 16295 ft | 374 kts | 264° |
| 2026-05-07 09:03 | 34.80662 | 33.15871 | 16881 ft | 376 kts | 264° |
| 2026-05-07 09:04 | 34.80211 | 33.12739 | 17412 ft | 378 kts | 264° |
| 2026-05-07 09:04 | 34.79757 | 33.09592 | 17961 ft | 380 kts | 264° |
| 2026-05-07 09:04 | 34.79306 | 33.06429 | 18479 ft | 382 kts | 264° |
| 2026-05-07 09:04 | 34.78857 | 33.03237 | 18924 ft | 386 kts | 264° |
| 2026-05-07 09:05 | 34.78403 | 33.00017 | 19412 ft | 389 kts | 264° |
| 2026-05-07 09:05 | 34.77943 | 32.96775 | 19884 ft | 391 kts | 264° |
| 2026-05-07 09:05 | 34.77480 | 32.93512 | 20375 ft | 393 kts | 264° |
| 2026-05-07 09:05 | 34.77014 | 32.90239 | 20866 ft | 395 kts | 264° |
| 2026-05-07 09:06 | 34.76544 | 32.86943 | 21341 ft | 397 kts | 264° |
| 2026-05-07 09:06 | 34.76070 | 32.83626 | 21802 ft | 400 kts | 264° |
| 2026-05-07 09:06 | 34.75593 | 32.80298 | 22243 ft | 402 kts | 264° |
| 2026-05-07 09:06 | 34.75111 | 32.76942 | 22689 ft | 404 kts | 264° |
| 2026-05-07 09:07 | 34.74626 | 32.73577 | 23125 ft | 406 kts | 264° |
| 2026-05-07 09:07 | 34.74137 | 32.70188 | 23543 ft | 409 kts | 263° |
| 2026-05-07 09:07 | 34.73628 | 32.66773 | 23952 ft | 412 kts | 263° |
| 2026-05-07 09:07 | 34.73107 | 32.63342 | 24346 ft | 415 kts | 263° |
| 2026-05-07 09:08 | 34.72578 | 32.59881 | 24729 ft | 417 kts | 263° |
| 2026-05-07 09:08 | 34.72050 | 32.56416 | 25102 ft | 420 kts | 263° |
| 2026-05-07 09:08 | 34.71536 | 32.52915 | 25477 ft | 421 kts | 264° |
| 2026-05-07 09:08 | 34.71153 | 32.49389 | 25853 ft | 422 kts | 268° |
| 2026-05-07 09:09 | 34.70915 | 32.45833 | 26200 ft | 423 kts | 269° |
| 2026-05-07 09:09 | 34.70724 | 32.42262 | 26521 ft | 425 kts | 269° |
| 2026-05-07 09:09 | 34.70536 | 32.38674 | 26849 ft | 427 kts | 269° |
| 2026-05-07 09:09 | 34.70346 | 32.35073 | 27166 ft | 429 kts | 269° |
| 2026-05-07 09:10 | 34.70154 | 32.31458 | 27466 ft | 431 kts | 269° |
| 2026-05-07 09:10 | 34.69960 | 32.27828 | 27743 ft | 433 kts | 269° |
| 2026-05-07 09:10 | 34.69763 | 32.24167 | 28010 ft | 434 kts | 269° |
| 2026-05-07 09:10 | 34.69566 | 32.20510 | 28348 ft | 434 kts | 269° |
| 2026-05-07 09:11 | 34.69366 | 32.16856 | 28720 ft | 433 kts | 269° |
| 2026-05-07 09:11 | 34.69167 | 32.13230 | 29097 ft | 431 kts | 269° |
| 2026-05-07 09:11 | 34.68965 | 32.09566 | 29438 ft | 430 kts | 269° |
| 2026-05-07 09:11 | 34.68765 | 32.05938 | 29753 ft | 429 kts | 269° |
| 2026-05-07 09:12 | 34.68564 | 32.02331 | 30044 ft | 429 kts | 269° |
| 2026-05-07 09:12 | 34.68378 | 31.98726 | 30314 ft | 428 kts | 270° |
| 2026-05-07 09:12 | 34.68365 | 31.95123 | 30562 ft | 427 kts | 274° |
| 2026-05-07 09:12 | 34.68569 | 31.91528 | 30809 ft | 426 kts | 278° |
| 2026-05-07 09:13 | 34.68990 | 31.87972 | 31084 ft | 424 kts | 282° |
| 2026-05-07 09:13 | 34.69616 | 31.84494 | 31358 ft | 422 kts | 285° |
| 2026-05-07 09:13 | 34.70443 | 31.81097 | 31625 ft | 420 kts | 289° |
| 2026-05-07 09:13 | 34.71376 | 31.77735 | 31885 ft | 419 kts | 289° |
| 2026-05-07 09:14 | 34.72317 | 31.74395 | 32122 ft | 419 kts | 289° |
| 2026-05-07 09:14 | 34.73263 | 31.71044 | 32356 ft | 418 kts | 289° |
| 2026-05-07 09:14 | 34.74204 | 31.67710 | 32533 ft | 419 kts | 289° |
| 2026-05-07 09:14 | 34.75144 | 31.64371 | 32688 ft | 419 kts | 289° |
| 2026-05-07 09:15 | 34.76089 | 31.61011 | 32847 ft | 420 kts | 289° |
| 2026-05-07 09:15 | 34.77031 | 31.57655 | 33011 ft | 420 kts | 289° |
| 2026-05-07 09:15 | 34.77972 | 31.54299 | 33187 ft | 420 kts | 289° |
| 2026-05-07 09:15 | 34.78912 | 31.50942 | 33342 ft | 420 kts | 289° |
| 2026-05-07 09:16 | 34.79853 | 31.47576 | 33464 ft | 421 kts | 289° |
| 2026-05-07 09:16 | 34.80794 | 31.44208 | 33586 ft | 422 kts | 289° |
| 2026-05-07 09:16 | 34.81737 | 31.40826 | 33720 ft | 422 kts | 289° |
| 2026-05-07 09:16 | 34.82679 | 31.37449 | 33859 ft | 422 kts | 289° |
| 2026-05-07 09:17 | 34.84565 | 31.30666 | 34062 ft | 424 kts | 289° |
| 2026-05-07 09:17 | 34.86449 | 31.23870 | 34140 ft | 425 kts | 289° |
| 2026-05-07 09:18 | 34.88336 | 31.17051 | 34142 ft | 425 kts | 289° |
| 2026-05-07 09:18 | 34.90216 | 31.10240 | 34146 ft | 425 kts | 289° |
| 2026-05-07 09:19 | 34.92093 | 31.03429 | 34141 ft | 426 kts | 289° |
| 2026-05-07 09:19 | 34.93970 | 30.96594 | 34146 ft | 425 kts | 289° |
| 2026-05-07 09:20 | 34.95839 | 30.89773 | 34143 ft | 425 kts | 289° |
| 2026-05-07 09:20 | 34.97701 | 30.82957 | 34144 ft | 424 kts | 289° |
| 2026-05-07 09:21 | 34.99554 | 30.76163 | 34143 ft | 424 kts | 289° |
| 2026-05-07 09:21 | 35.01406 | 30.69356 | 34143 ft | 424 kts | 289° |
| 2026-05-07 09:22 | 35.03258 | 30.62531 | 34141 ft | 424 kts | 289° |
| 2026-05-07 09:22 | 35.05106 | 30.55700 | 34142 ft | 425 kts | 289° |
| 2026-05-07 09:23 | 35.06953 | 30.48858 | 34143 ft | 425 kts | 289° |
| 2026-05-07 09:23 | 35.08794 | 30.42019 | 34141 ft | 425 kts | 289° |
| 2026-05-07 09:24 | 35.10633 | 30.35166 | 34144 ft | 425 kts | 289° |
| 2026-05-07 09:24 | 35.12464 | 30.28328 | 34140 ft | 424 kts | 289° |
| 2026-05-07 09:25 | 35.14292 | 30.21492 | 34144 ft | 424 kts | 289° |
| 2026-05-07 09:25 | 35.16114 | 30.14647 | 34154 ft | 424 kts | 289° |
| 2026-05-07 09:26 | 35.18003 | 30.07850 | 34153 ft | 424 kts | 291° |
| 2026-05-07 09:26 | 35.20364 | 30.01296 | 34155 ft | 422 kts | 297° |
| 2026-05-07 09:27 | 35.23251 | 29.95044 | 34159 ft | 422 kts | 302° |
| 2026-05-07 09:28 | 35.28356 | 29.86277 | 34147 ft | 422 kts | 306° |
| 2026-05-07 09:28 | 35.31854 | 29.80528 | 34149 ft | 422 kts | 306° |
| 2026-05-07 09:29 | 35.35354 | 29.74765 | 34151 ft | 421 kts | 306° |
| 2026-05-07 09:29 | 35.38840 | 29.69012 | 34155 ft | 421 kts | 306° |
| 2026-05-07 09:30 | 35.42318 | 29.63262 | 34145 ft | 420 kts | 307° |
| 2026-05-07 09:30 | 35.45788 | 29.57521 | 34159 ft | 419 kts | 307° |
| 2026-05-07 09:31 | 35.49252 | 29.51778 | 34151 ft | 418 kts | 307° |
| 2026-05-07 09:31 | 35.52713 | 29.46035 | 34147 ft | 420 kts | 307° |
| 2026-05-07 09:32 | 35.56176 | 29.40270 | 34151 ft | 419 kts | 307° |
| 2026-05-07 09:32 | 35.59632 | 29.34509 | 34153 ft | 418 kts | 306° |
| 2026-05-07 09:33 | 35.63078 | 29.28758 | 34153 ft | 418 kts | 307° |
| 2026-05-07 09:33 | 35.66521 | 29.23004 | 34147 ft | 419 kts | 306° |
| 2026-05-07 09:34 | 35.69965 | 29.17236 | 34147 ft | 418 kts | 307° |
| 2026-05-07 09:34 | 35.73399 | 29.11480 | 34144 ft | 418 kts | 307° |
| 2026-05-07 09:35 | 35.76827 | 29.05719 | 34146 ft | 418 kts | 307° |
| 2026-05-07 09:35 | 35.80262 | 28.99936 | 34148 ft | 417 kts | 307° |
| 2026-05-07 09:36 | 35.83685 | 28.94169 | 34142 ft | 416 kts | 307° |
| 2026-05-07 09:36 | 35.87094 | 28.88409 | 34146 ft | 416 kts | 307° |
| 2026-05-07 09:37 | 35.90499 | 28.82648 | 34143 ft | 417 kts | 307° |
| 2026-05-07 09:37 | 35.93906 | 28.76873 | 34144 ft | 417 kts | 307° |
| 2026-05-07 09:38 | 35.97314 | 28.71093 | 34145 ft | 417 kts | 307° |
| 2026-05-07 09:38 | 36.00725 | 28.65292 | 34139 ft | 418 kts | 307° |
| 2026-05-07 09:39 | 36.04134 | 28.59484 | 34139 ft | 418 kts | 307° |
| 2026-05-07 09:39 | 36.07538 | 28.53678 | 34139 ft | 418 kts | 307° |
| 2026-05-07 09:40 | 36.10952 | 28.47838 | 34138 ft | 418 kts | 307° |
| 2026-05-07 09:40 | 36.14365 | 28.41995 | 34134 ft | 418 kts | 307° |
| 2026-05-07 09:41 | 36.17766 | 28.36171 | 34133 ft | 417 kts | 307° |
| 2026-05-07 09:41 | 36.21156 | 28.30348 | 34133 ft | 417 kts | 306° |
| 2026-05-07 09:42 | 36.24553 | 28.24505 | 34134 ft | 417 kts | 306° |
| 2026-05-07 09:42 | 36.27957 | 28.18641 | 34132 ft | 417 kts | 306° |
| 2026-05-07 09:43 | 36.31018 | 28.12526 | 34134 ft | 419 kts | 299° |
| 2026-05-07 09:43 | 36.33410 | 28.05917 | 34136 ft | 422 kts | 292° |
| 2026-05-07 09:44 | 36.35073 | 27.98924 | 34138 ft | 424 kts | 285° |
| 2026-05-07 09:44 | 36.36107 | 27.91714 | 34137 ft | 425 kts | 282° |
| 2026-05-07 09:45 | 36.37042 | 27.84497 | 34134 ft | 424 kts | 282° |
| 2026-05-07 09:45 | 36.37971 | 27.77272 | 34131 ft | 425 kts | 282° |
| 2026-05-07 09:46 | 36.38898 | 27.70025 | 34133 ft | 425 kts | 282° |
| 2026-05-07 09:46 | 36.39809 | 27.62786 | 34133 ft | 424 kts | 282° |
| 2026-05-07 09:47 | 36.40717 | 27.55543 | 34134 ft | 424 kts | 282° |
| 2026-05-07 09:47 | 36.41620 | 27.48303 | 34135 ft | 424 kts | 282° |
| 2026-05-07 09:48 | 36.42519 | 27.41053 | 34132 ft | 424 kts | 282° |
| 2026-05-07 09:48 | 36.43415 | 27.33798 | 34135 ft | 426 kts | 282° |
| 2026-05-07 09:49 | 36.44306 | 27.26552 | 34137 ft | 424 kts | 281° |
| 2026-05-07 09:49 | 36.45188 | 27.19325 | 34138 ft | 425 kts | 282° |
| 2026-05-07 09:50 | 36.46067 | 27.12085 | 34140 ft | 424 kts | 282° |
| 2026-05-07 09:50 | 36.46944 | 27.04839 | 34140 ft | 424 kts | 282° |
| 2026-05-07 09:51 | 36.47830 | 26.97590 | 34139 ft | 424 kts | 282° |
| 2026-05-07 09:51 | 36.48708 | 26.90353 | 34140 ft | 423 kts | 282° |
| 2026-05-07 09:52 | 36.49575 | 26.83121 | 34134 ft | 423 kts | 281° |
| 2026-05-07 09:52 | 36.50426 | 26.75905 | 34138 ft | 422 kts | 282° |
| 2026-05-07 09:53 | 36.51279 | 26.68695 | 34136 ft | 423 kts | 281° |
| 2026-05-07 09:53 | 36.52447 | 26.61574 | 34142 ft | 419 kts | 290° |
| 2026-05-07 09:54 | 36.54935 | 26.55080 | 34138 ft | 416 kts | 304° |
| 2026-05-07 09:54 | 36.58653 | 26.49555 | 34139 ft | 417 kts | 316° |
| 2026-05-07 09:55 | 36.63382 | 26.45336 | 34142 ft | 421 kts | 330° |
| 2026-05-07 09:55 | 36.68665 | 26.42135 | 34141 ft | 421 kts | 332° |
| 2026-05-07 09:56 | 36.73995 | 26.39017 | 34148 ft | 422 kts | 332° |
| 2026-05-07 09:56 | 36.79318 | 26.35897 | 34143 ft | 423 kts | 332° |
| 2026-05-07 09:57 | 36.84646 | 26.32766 | 34145 ft | 422 kts | 331° |
| 2026-05-07 09:57 | 36.89980 | 26.29624 | 34145 ft | 425 kts | 332° |
| 2026-05-07 09:58 | 36.95336 | 26.26472 | 34140 ft | 425 kts | 332° |
| 2026-05-07 09:58 | 37.00680 | 26.23290 | 34147 ft | 425 kts | 331° |
| 2026-05-07 09:59 | 37.06007 | 26.20040 | 34143 ft | 427 kts | 330° |
| 2026-05-07 09:59 | 37.11362 | 26.16766 | 34142 ft | 427 kts | 331° |
| 2026-05-07 10:00 | 37.16713 | 26.13492 | 34138 ft | 429 kts | 331° |
| 2026-05-07 10:00 | 37.22089 | 26.10198 | 34137 ft | 430 kts | 330° |
| 2026-05-07 10:01 | 37.27475 | 26.06895 | 34136 ft | 429 kts | 330° |
| 2026-05-07 10:01 | 37.32841 | 26.03596 | 34136 ft | 429 kts | 330° |
| 2026-05-07 10:02 | 37.38214 | 26.00289 | 34401 ft | 429 kts | 330° |
| 2026-05-07 10:02 | 37.40895 | 25.98637 | 34592 ft | 428 kts | 330° |
| 2026-05-07 10:02 | 37.43572 | 25.96989 | 34794 ft | 426 kts | 330° |
| 2026-05-07 10:02 | 37.46226 | 25.95349 | 34973 ft | 425 kts | 330° |
| 2026-05-07 10:03 | 37.48884 | 25.93706 | 35132 ft | 424 kts | 330° |
| 2026-05-07 10:03 | 37.51531 | 25.92070 | 35314 ft | 423 kts | 330° |
| 2026-05-07 10:03 | 37.54170 | 25.90437 | 35474 ft | 422 kts | 330° |
| 2026-05-07 10:03 | 37.56802 | 25.88803 | 35661 ft | 420 kts | 330° |
| 2026-05-07 10:04 | 37.59426 | 25.87178 | 35840 ft | 419 kts | 330° |
| 2026-05-07 10:04 | 37.62043 | 25.85556 | 35997 ft | 418 kts | 330° |
| 2026-05-07 10:04 | 37.64653 | 25.83937 | 36121 ft | 417 kts | 330° |
| 2026-05-07 10:05 | 37.69865 | 25.80703 | 36121 ft | 417 kts | 330° |
| 2026-05-07 10:05 | 37.75074 | 25.77457 | 36124 ft | 417 kts | 330° |
| 2026-05-07 10:06 | 37.80286 | 25.74208 | 36120 ft | 417 kts | 330° |
| 2026-05-07 10:06 | 37.85503 | 25.70949 | 36113 ft | 419 kts | 330° |
| 2026-05-07 10:07 | 37.90732 | 25.67678 | 36111 ft | 420 kts | 330° |
| 2026-05-07 10:07 | 37.95956 | 25.64406 | 35965 ft | 418 kts | 330° |
| 2026-05-07 10:08 | 38.01173 | 25.61132 | 36079 ft | 419 kts | 330° |
| 2026-05-07 10:08 | 38.06402 | 25.57842 | 36099 ft | 421 kts | 330° |
| 2026-05-07 10:09 | 38.11657 | 25.54533 | 36107 ft | 422 kts | 330° |
| 2026-05-07 10:09 | 38.16919 | 25.51216 | 36101 ft | 422 kts | 330° |
| 2026-05-07 10:10 | 38.22174 | 25.47895 | 36105 ft | 423 kts | 330° |
| 2026-05-07 10:10 | 38.27441 | 25.44563 | 36106 ft | 423 kts | 330° |
| 2026-05-07 10:11 | 38.32710 | 25.41225 | 36100 ft | 424 kts | 330° |
| 2026-05-07 10:11 | 38.37980 | 25.37879 | 36098 ft | 423 kts | 330° |
| 2026-05-07 10:12 | 38.43266 | 25.34518 | 36102 ft | 424 kts | 329° |
| 2026-05-07 10:12 | 38.48542 | 25.31158 | 36100 ft | 424 kts | 329° |
| 2026-05-07 10:13 | 38.53826 | 25.27786 | 36098 ft | 425 kts | 329° |
| 2026-05-07 10:13 | 38.59114 | 25.24408 | 36097 ft | 425 kts | 329° |
| 2026-05-07 10:14 | 38.64395 | 25.21028 | 36092 ft | 426 kts | 329° |
| 2026-05-07 10:14 | 38.69690 | 25.17630 | 36090 ft | 427 kts | 329° |
| 2026-05-07 10:15 | 38.74997 | 25.14222 | 36091 ft | 427 kts | 329° |
| 2026-05-07 10:15 | 38.80308 | 25.10807 | 36087 ft | 427 kts | 329° |
| 2026-05-07 10:16 | 38.85620 | 25.07383 | 36087 ft | 429 kts | 329° |
| 2026-05-07 10:16 | 38.90946 | 25.03947 | 36081 ft | 429 kts | 329° |
| 2026-05-07 10:17 | 38.96287 | 25.00492 | 36082 ft | 431 kts | 329° |
| 2026-05-07 10:17 | 39.01645 | 24.97018 | 36082 ft | 431 kts | 329° |
| 2026-05-07 10:18 | 39.06992 | 24.93545 | 36081 ft | 432 kts | 329° |
| 2026-05-07 10:18 | 39.12377 | 24.90091 | 36082 ft | 432 kts | 330° |
| 2026-05-07 10:19 | 39.17799 | 24.86750 | 36080 ft | 433 kts | 330° |
| 2026-05-07 10:19 | 39.23227 | 24.83399 | 36082 ft | 434 kts | 330° |
| 2026-05-07 10:20 | 39.28659 | 24.80026 | 36085 ft | 435 kts | 330° |
| 2026-05-07 10:20 | 39.34100 | 24.76640 | 36086 ft | 434 kts | 330° |
| 2026-05-07 10:21 | 39.39553 | 24.73237 | 36086 ft | 435 kts | 330° |
| 2026-05-07 10:21 | 39.45003 | 24.69822 | 36088 ft | 435 kts | 330° |
| 2026-05-07 10:22 | 39.50246 | 24.65981 | 36090 ft | 432 kts | 324° |
| 2026-05-07 10:22 | 39.55146 | 24.61470 | 36091 ft | 432 kts | 319° |
| 2026-05-07 10:23 | 39.59878 | 24.56665 | 36086 ft | 433 kts | 319° |
| 2026-05-07 10:23 | 39.64606 | 24.51831 | 36081 ft | 433 kts | 319° |
| 2026-05-07 10:24 | 39.69327 | 24.47001 | 36086 ft | 433 kts | 319° |
| 2026-05-07 10:24 | 39.74054 | 24.42159 | 36088 ft | 435 kts | 319° |
| 2026-05-07 10:25 | 39.78791 | 24.37298 | 36083 ft | 435 kts | 319° |
| 2026-05-07 10:25 | 39.83533 | 24.32422 | 36083 ft | 435 kts | 319° |
| 2026-05-07 10:26 | 39.88268 | 24.27547 | 36089 ft | 435 kts | 319° |
| 2026-05-07 10:26 | 39.93017 | 24.22649 | 36084 ft | 436 kts | 318° |
| 2026-05-07 10:27 | 39.97763 | 24.17745 | 36086 ft | 437 kts | 319° |
| 2026-05-07 10:27 | 40.02529 | 24.12813 | 36085 ft | 438 kts | 318° |
| 2026-05-07 10:28 | 40.07296 | 24.07865 | 36081 ft | 438 kts | 318° |
| 2026-05-07 10:28 | 40.12072 | 24.02904 | 36081 ft | 438 kts | 318° |
| 2026-05-07 10:29 | 40.16849 | 23.97930 | 36083 ft | 438 kts | 318° |
| 2026-05-07 10:29 | 40.21599 | 23.92974 | 36083 ft | 437 kts | 318° |
| 2026-05-07 10:30 | 40.28723 | 23.85528 | 36085 ft | 438 kts | 318° |
| 2026-05-07 10:30 | 40.33489 | 23.80531 | 36087 ft | 439 kts | 318° |
| 2026-05-07 10:31 | 40.38245 | 23.75536 | 36088 ft | 439 kts | 318° |
| 2026-05-07 10:31 | 40.43025 | 23.70510 | 36095 ft | 440 kts | 318° |
| 2026-05-07 10:32 | 40.47792 | 23.65489 | 36103 ft | 440 kts | 318° |
| 2026-05-07 10:32 | 40.52560 | 23.60453 | 36102 ft | 441 kts | 318° |
| 2026-05-07 10:33 | 40.57335 | 23.55402 | 36110 ft | 441 kts | 318° |
| 2026-05-07 10:33 | 40.62116 | 23.50335 | 36109 ft | 441 kts | 318° |
| 2026-05-07 10:34 | 40.66878 | 23.45279 | 36114 ft | 440 kts | 318° |
| 2026-05-07 10:34 | 40.71639 | 23.40210 | 36112 ft | 440 kts | 318° |
| 2026-05-07 10:35 | 40.76388 | 23.35146 | 36110 ft | 441 kts | 318° |
| 2026-05-07 10:35 | 40.81153 | 23.30054 | 36112 ft | 441 kts | 317° |
| 2026-05-07 10:36 | 40.85915 | 23.24960 | 36109 ft | 442 kts | 317° |
| 2026-05-07 10:36 | 40.90683 | 23.19842 | 36110 ft | 442 kts | 317° |
| 2026-05-07 10:37 | 40.95444 | 23.14736 | 36108 ft | 441 kts | 317° |
| 2026-05-07 10:37 | 41.00196 | 23.09623 | 36112 ft | 441 kts | 317° |
| 2026-05-07 10:38 | 41.04946 | 23.04501 | 36115 ft | 441 kts | 317° |
| 2026-05-07 10:38 | 41.09745 | 22.99442 | 36114 ft | 444 kts | 320° |
| 2026-05-07 10:39 | 41.14877 | 22.94835 | 36110 ft | 446 kts | 323° |
| 2026-05-07 10:39 | 41.20085 | 22.90339 | 36116 ft | 446 kts | 323° |
| 2026-05-07 10:40 | 41.25288 | 22.85832 | 36104 ft | 447 kts | 323° |
| 2026-05-07 10:40 | 41.30490 | 22.81308 | 36111 ft | 447 kts | 323° |
| 2026-05-07 10:41 | 41.35835 | 22.77047 | 36109 ft | 450 kts | 327° |
| 2026-05-07 10:41 | 41.41325 | 22.73036 | 36105 ft | 450 kts | 327° |
| 2026-05-07 10:42 | 41.46816 | 22.69029 | 36114 ft | 451 kts | 327° |
| 2026-05-07 10:42 | 41.52316 | 22.65001 | 36111 ft | 451 kts | 327° |
| 2026-05-07 10:43 | 41.57798 | 22.60971 | 36119 ft | 451 kts | 327° |
| 2026-05-07 10:43 | 41.63304 | 22.56915 | 36128 ft | 452 kts | 327° |
| 2026-05-07 10:44 | 41.68805 | 22.52853 | 36131 ft | 453 kts | 327° |
| 2026-05-07 10:44 | 41.74332 | 22.48766 | 36138 ft | 453 kts | 327° |
| 2026-05-07 10:45 | 41.79848 | 22.44678 | 36133 ft | 454 kts | 327° |
| 2026-05-07 10:45 | 41.85381 | 22.40569 | 36128 ft | 454 kts | 327° |
| 2026-05-07 10:46 | 41.90909 | 22.36455 | 36125 ft | 454 kts | 327° |
| 2026-05-07 10:46 | 41.96429 | 22.32339 | 36115 ft | 455 kts | 327° |
| 2026-05-07 10:47 | 42.01955 | 22.28210 | 36112 ft | 454 kts | 327° |
| 2026-05-07 10:47 | 42.07479 | 22.24073 | 36106 ft | 455 kts | 326° |
| 2026-05-07 10:48 | 42.13011 | 22.19923 | 36107 ft | 455 kts | 327° |
| 2026-05-07 10:48 | 42.18547 | 22.15762 | 36106 ft | 456 kts | 327° |
| 2026-05-07 10:49 | 42.24081 | 22.11594 | 36102 ft | 457 kts | 326° |
| 2026-05-07 10:49 | 42.29610 | 22.07420 | 36098 ft | 456 kts | 327° |
| 2026-05-07 10:50 | 42.35164 | 22.03222 | 36096 ft | 457 kts | 327° |
| 2026-05-07 10:50 | 42.40715 | 21.99014 | 36098 ft | 456 kts | 327° |
| 2026-05-07 10:51 | 42.46263 | 21.94804 | 36096 ft | 457 kts | 326° |
| 2026-05-07 10:51 | 42.51802 | 21.90588 | 36093 ft | 457 kts | 326° |
| 2026-05-07 10:52 | 42.57336 | 21.86370 | 36090 ft | 457 kts | 326° |
| 2026-05-07 10:52 | 42.62883 | 21.82130 | 36091 ft | 458 kts | 326° |
| 2026-05-07 10:53 | 42.68428 | 21.77885 | 36089 ft | 458 kts | 326° |
| 2026-05-07 10:53 | 42.73969 | 21.73635 | 36090 ft | 458 kts | 326° |
| 2026-05-07 10:54 | 42.79505 | 21.69379 | 36091 ft | 459 kts | 326° |
| 2026-05-07 10:54 | 42.85070 | 21.65092 | 36090 ft | 459 kts | 327° |
| 2026-05-07 10:55 | 42.90616 | 21.60810 | 36086 ft | 459 kts | 326° |
| 2026-05-07 10:55 | 42.96163 | 21.56520 | 36090 ft | 458 kts | 326° |
| 2026-05-07 10:56 | 43.01710 | 21.52217 | 36095 ft | 459 kts | 326° |
| 2026-05-07 10:56 | 43.07264 | 21.47904 | 36094 ft | 460 kts | 326° |
| 2026-05-07 10:57 | 43.12821 | 21.43575 | 36087 ft | 461 kts | 327° |
| 2026-05-07 10:57 | 43.18389 | 21.39230 | 36079 ft | 461 kts | 326° |
| 2026-05-07 10:58 | 43.23964 | 21.34869 | 36079 ft | 462 kts | 326° |
| 2026-05-07 10:58 | 43.29558 | 21.30486 | 36070 ft | 462 kts | 325° |
| 2026-05-07 10:59 | 43.35029 | 21.25889 | 36067 ft | 460 kts | 323° |
| 2026-05-07 10:59 | 43.40456 | 21.21183 | 36062 ft | 460 kts | 323° |
| 2026-05-07 11:00 | 43.45888 | 21.16463 | 36061 ft | 462 kts | 323° |
| 2026-05-07 11:00 | 43.51319 | 21.11742 | 36062 ft | 462 kts | 323° |
| 2026-05-07 11:01 | 43.56735 | 21.07023 | 36060 ft | 462 kts | 323° |
| 2026-05-07 11:01 | 43.62157 | 21.02292 | 36058 ft | 463 kts | 323° |
| 2026-05-07 11:02 | 43.67601 | 20.97529 | 36059 ft | 464 kts | 323° |
| 2026-05-07 11:02 | 43.73050 | 20.92751 | 36056 ft | 464 kts | 323° |
| 2026-05-07 11:03 | 43.78485 | 20.87977 | 36047 ft | 464 kts | 323° |
| 2026-05-07 11:03 | 43.83936 | 20.83178 | 36043 ft | 465 kts | 323° |
| 2026-05-07 11:04 | 43.89379 | 20.78372 | 36042 ft | 464 kts | 323° |
| 2026-05-07 11:04 | 43.94817 | 20.73563 | 36035 ft | 464 kts | 323° |
| 2026-05-07 11:05 | 44.00253 | 20.68746 | 36036 ft | 465 kts | 323° |
| 2026-05-07 11:05 | 44.05699 | 20.63907 | 36034 ft | 465 kts | 323° |
| 2026-05-07 11:06 | 44.11135 | 20.59067 | 36023 ft | 465 kts | 323° |
| 2026-05-07 11:06 | 44.16567 | 20.54219 | 36019 ft | 464 kts | 323° |
| 2026-05-07 11:07 | 44.21986 | 20.49373 | 36016 ft | 464 kts | 323° |
| 2026-05-07 11:07 | 44.27413 | 20.44509 | 36017 ft | 464 kts | 323° |
| 2026-05-07 11:08 | 44.32858 | 20.39618 | 36017 ft | 464 kts | 323° |
| 2026-05-07 11:08 | 44.38314 | 20.34705 | 36011 ft | 465 kts | 322° |
| 2026-05-07 11:09 | 44.43746 | 20.29805 | 36005 ft | 464 kts | 322° |
| 2026-05-07 11:09 | 44.49181 | 20.24891 | 36002 ft | 464 kts | 322° |
| 2026-05-07 11:10 | 44.54607 | 20.19971 | 36004 ft | 464 kts | 322° |
| 2026-05-07 11:10 | 44.60036 | 20.15041 | 36008 ft | 464 kts | 322° |
| 2026-05-07 11:11 | 44.65446 | 20.10115 | 36010 ft | 463 kts | 323° |
| 2026-05-07 11:11 | 44.70841 | 20.05190 | 36010 ft | 462 kts | 323° |
| 2026-05-07 11:12 | 44.73532 | 20.02730 | 36008 ft | 463 kts | 323° |
| 2026-05-07 11:12 | 44.81650 | 19.95294 | 36012 ft | 464 kts | 323° |
| 2026-05-07 11:13 | 44.87052 | 19.90330 | 36010 ft | 464 kts | 323° |
| 2026-05-07 11:13 | 44.92454 | 19.85358 | 36005 ft | 463 kts | 323° |
| 2026-05-07 11:14 | 44.97847 | 19.80380 | 36000 ft | 463 kts | 323° |
| 2026-05-07 11:14 | 45.03242 | 19.75389 | 35998 ft | 463 kts | 323° |
| 2026-05-07 11:15 | 45.08613 | 19.70413 | 35996 ft | 462 kts | 322° |
| 2026-05-07 11:15 | 45.13985 | 19.65419 | 35997 ft | 463 kts | 322° |
| 2026-05-07 11:16 | 45.19360 | 19.60410 | 35998 ft | 462 kts | 322° |
| 2026-05-07 11:16 | 45.24746 | 19.55379 | 35990 ft | 462 kts | 322° |
| 2026-05-07 11:17 | 45.30109 | 19.50357 | 35988 ft | 462 kts | 322° |
| 2026-05-07 11:17 | 45.35482 | 19.45314 | 35990 ft | 463 kts | 322° |
| 2026-05-07 11:18 | 45.40850 | 19.40281 | 35989 ft | 463 kts | 324° |
| 2026-05-07 11:18 | 45.46347 | 19.35512 | 35990 ft | 464 kts | 325° |
| 2026-05-07 11:19 | 45.51873 | 19.30783 | 35990 ft | 463 kts | 324° |
| 2026-05-07 11:19 | 45.57406 | 19.26023 | 35991 ft | 464 kts | 324° |
| 2026-05-07 11:20 | 45.62918 | 19.21263 | 35991 ft | 463 kts | 323° |
| 2026-05-07 11:20 | 45.68448 | 19.16473 | 35996 ft | 463 kts | 323° |
| 2026-05-07 11:21 | 45.73030 | 19.12492 | 35998 ft | 463 kts | 323° |
| 2026-05-07 11:21 | 45.79482 | 19.06878 | 35988 ft | 463 kts | 323° |
| 2026-05-07 11:22 | 45.84992 | 19.02072 | 35979 ft | 463 kts | 323° |
| 2026-05-07 11:22 | 45.90522 | 18.97235 | 35967 ft | 463 kts | 323° |
| 2026-05-07 11:23 | 45.96039 | 18.92401 | 35964 ft | 464 kts | 323° |
| 2026-05-07 11:23 | 46.01578 | 18.87535 | 35974 ft | 464 kts | 323° |
| 2026-05-07 11:24 | 46.07095 | 18.82675 | 35977 ft | 464 kts | 323° |
| 2026-05-07 11:24 | 46.12594 | 18.77818 | 35978 ft | 464 kts | 323° |
| 2026-05-07 11:25 | 46.18105 | 18.72940 | 35976 ft | 464 kts | 323° |
| 2026-05-07 11:25 | 46.23626 | 18.68041 | 35980 ft | 465 kts | 323° |
| 2026-05-07 11:26 | 46.29158 | 18.63122 | 35978 ft | 466 kts | 323° |
| 2026-05-07 11:26 | 46.34690 | 18.58194 | 35976 ft | 467 kts | 323° |
| 2026-05-07 11:27 | 46.40209 | 18.53261 | 35977 ft | 467 kts | 323° |
| 2026-05-07 11:27 | 46.45775 | 18.48277 | 35977 ft | 467 kts | 323° |
| 2026-05-07 11:28 | 46.50392 | 18.44134 | 35978 ft | 468 kts | 323° |
| 2026-05-07 11:28 | 46.55962 | 18.39121 | 35980 ft | 467 kts | 323° |
| 2026-05-07 11:29 | 46.61514 | 18.34116 | 35979 ft | 467 kts | 322° |
| 2026-05-07 11:29 | 46.67977 | 18.28271 | 35981 ft | 468 kts | 322° |
| 2026-05-07 11:30 | 46.73518 | 18.23246 | 35982 ft | 469 kts | 322° |
| 2026-05-07 11:30 | 46.79066 | 18.18203 | 35974 ft | 469 kts | 322° |
| 2026-05-07 11:31 | 46.84624 | 18.13139 | 35983 ft | 470 kts | 322° |
| 2026-05-07 11:31 | 46.90193 | 18.08051 | 35973 ft | 472 kts | 321° |
| 2026-05-07 11:32 | 46.98563 | 18.00382 | 35971 ft | 472 kts | 322° |
| 2026-05-07 11:33 | 47.04150 | 17.95249 | 35960 ft | 471 kts | 321° |
| 2026-05-07 11:33 | 47.09731 | 17.90105 | 35960 ft | 472 kts | 321° |
| 2026-05-07 11:34 | 47.15279 | 17.84978 | 35958 ft | 471 kts | 321° |
| 2026-05-07 11:34 | 47.20852 | 17.79811 | 35958 ft | 472 kts | 321° |
| 2026-05-07 11:35 | 47.26402 | 17.74660 | 35960 ft | 472 kts | 321° |
| 2026-05-07 11:35 | 47.31959 | 17.69488 | 35964 ft | 472 kts | 321° |
| 2026-05-07 11:36 | 47.37510 | 17.64306 | 35963 ft | 473 kts | 322° |
| 2026-05-07 11:36 | 47.43057 | 17.59117 | 35961 ft | 474 kts | 322° |
| 2026-05-07 11:37 | 47.48598 | 17.53922 | 35957 ft | 473 kts | 322° |
| 2026-05-07 11:37 | 47.54162 | 17.48687 | 35953 ft | 473 kts | 322° |
| 2026-05-07 11:38 | 47.59703 | 17.43458 | 35949 ft | 474 kts | 322° |
| 2026-05-07 11:38 | 47.65298 | 17.38280 | 35943 ft | 476 kts | 323° |
| 2026-05-07 11:39 | 47.71006 | 17.33284 | 35939 ft | 475 kts | 323° |
| 2026-05-07 11:39 | 47.76694 | 17.28291 | 35938 ft | 475 kts | 323° |
| 2026-05-07 11:40 | 47.82369 | 17.23270 | 35935 ft | 475 kts | 323° |
| 2026-05-07 11:40 | 47.88057 | 17.18216 | 35933 ft | 477 kts | 323° |
| 2026-05-07 11:41 | 47.92793 | 17.13997 | 35928 ft | 477 kts | 323° |
| 2026-05-07 11:41 | 47.99421 | 17.08074 | 35933 ft | 477 kts | 323° |
| 2026-05-07 11:42 | 48.05108 | 17.02975 | 35934 ft | 477 kts | 323° |
| 2026-05-07 11:42 | 48.10802 | 16.97861 | 35946 ft | 476 kts | 323° |
| 2026-05-07 11:43 | 48.16476 | 16.92746 | 35921 ft | 478 kts | 323° |
| 2026-05-07 11:43 | 48.22168 | 16.87608 | 35933 ft | 478 kts | 323° |
| 2026-05-07 11:44 | 48.27851 | 16.82462 | 35928 ft | 477 kts | 323° |
| 2026-05-07 11:44 | 48.33535 | 16.77299 | 35929 ft | 479 kts | 323° |
| 2026-05-07 11:45 | 48.39215 | 16.72131 | 35945 ft | 479 kts | 323° |
| 2026-05-07 11:45 | 48.44899 | 16.66941 | 35930 ft | 479 kts | 323° |
| 2026-05-07 11:46 | 48.50588 | 16.61733 | 35954 ft | 480 kts | 323° |
| 2026-05-07 11:46 | 48.56291 | 16.56500 | 35945 ft | 480 kts | 323° |
| 2026-05-07 11:47 | 48.61985 | 16.51261 | 35924 ft | 480 kts | 323° |
| 2026-05-07 11:47 | 48.67690 | 16.45995 | 35941 ft | 481 kts | 323° |
| 2026-05-07 11:48 | 48.73401 | 16.40713 | 35934 ft | 481 kts | 323° |
| 2026-05-07 11:48 | 48.79113 | 16.35414 | 35935 ft | 481 kts | 323° |
| 2026-05-07 11:49 | 48.84808 | 16.30117 | 35932 ft | 481 kts | 323° |
| 2026-05-07 11:49 | 48.90501 | 16.24807 | 35942 ft | 481 kts | 322° |
| 2026-05-07 11:50 | 48.96199 | 16.19476 | 35943 ft | 482 kts | 323° |
| 2026-05-07 11:50 | 49.01926 | 16.14105 | 35948 ft | 482 kts | 323° |
| 2026-05-07 11:51 | 49.07624 | 16.08742 | 35938 ft | 483 kts | 323° |
| 2026-05-07 11:51 | 49.13334 | 16.03354 | 35945 ft | 482 kts | 323° |
| 2026-05-07 11:52 | 49.19009 | 15.97893 | 35957 ft | 481 kts | 321° |
| 2026-05-07 11:52 | 49.24627 | 15.92319 | 35940 ft | 480 kts | 321° |
| 2026-05-07 11:53 | 49.30229 | 15.86744 | 35931 ft | 480 kts | 321° |
| 2026-05-07 11:53 | 49.33018 | 15.83968 | 36140 ft | 479 kts | 322° |
| 2026-05-07 11:53 | 49.35815 | 15.81182 | 35737 ft | 479 kts | 322° |
| 2026-05-07 11:54 | 49.41399 | 15.75606 | 35855 ft | 480 kts | 322° |
| 2026-05-07 11:54 | 49.46994 | 15.70008 | 36091 ft | 480 kts | 322° |
| 2026-05-07 11:55 | 49.52567 | 15.64421 | 35961 ft | 478 kts | 322° |
| 2026-05-07 11:55 | 49.58142 | 15.58809 | 35928 ft | 479 kts | 322° |
| 2026-05-07 11:56 | 49.63716 | 15.53185 | 35926 ft | 478 kts | 322° |
| 2026-05-07 11:56 | 49.69288 | 15.47548 | 35921 ft | 478 kts | 322° |
| 2026-05-07 11:57 | 49.74833 | 15.41921 | 35922 ft | 477 kts | 322° |
| 2026-05-07 11:57 | 49.80375 | 15.36280 | 35917 ft | 477 kts | 322° |
| 2026-05-07 11:58 | 49.85926 | 15.30621 | 35916 ft | 476 kts | 322° |
| 2026-05-07 11:58 | 49.88669 | 15.27819 | 35775 ft | 471 kts | 322° |
| 2026-05-07 11:58 | 49.91391 | 15.25038 | 35266 ft | 470 kts | 321° |
| 2026-05-07 11:58 | 49.94115 | 15.22245 | 34498 ft | 475 kts | 321° |
| 2026-05-07 11:59 | 49.96870 | 15.19414 | 33647 ft | 481 kts | 321° |
| 2026-05-07 11:59 | 49.99656 | 15.16547 | 32743 ft | 486 kts | 321° |
| 2026-05-07 11:59 | 50.02483 | 15.13638 | 31823 ft | 491 kts | 321° |
| 2026-05-07 11:59 | 50.05330 | 15.10705 | 30904 ft | 495 kts | 321° |
| 2026-05-07 12:00 | 50.07238 | 15.08735 | 30273 ft | 497 kts | 320° |
| 2026-05-07 12:00 | 50.11075 | 15.04763 | 29032 ft | 499 kts | 321° |
| 2026-05-07 12:00 | 50.13959 | 15.01769 | 28113 ft | 499 kts | 321° |
| 2026-05-07 12:00 | 50.16837 | 14.98780 | 27203 ft | 498 kts | 322° |
| 2026-05-07 12:01 | 50.19710 | 14.95796 | 26435 ft | 494 kts | 322° |
| 2026-05-07 12:01 | 50.22544 | 14.92853 | 25725 ft | 488 kts | 322° |
| 2026-05-07 12:01 | 50.25356 | 14.89927 | 25046 ft | 482 kts | 323° |
| 2026-05-07 12:01 | 50.28118 | 14.87047 | 24384 ft | 476 kts | 323° |
| 2026-05-07 12:02 | 50.30838 | 14.84207 | 23731 ft | 469 kts | 323° |
| 2026-05-07 12:02 | 50.33538 | 14.81387 | 23048 ft | 464 kts | 323° |
| 2026-05-07 12:02 | 50.36205 | 14.78596 | 22352 ft | 459 kts | 323° |
| 2026-05-07 12:02 | 50.38841 | 14.75832 | 21688 ft | 455 kts | 323° |
| 2026-05-07 12:03 | 50.41441 | 14.73103 | 21015 ft | 450 kts | 323° |
| 2026-05-07 12:03 | 50.44024 | 14.70388 | 20365 ft | 446 kts | 323° |
| 2026-05-07 12:03 | 50.46572 | 14.67704 | 19714 ft | 441 kts | 324° |
| 2026-05-07 12:03 | 50.49095 | 14.65044 | 19095 ft | 437 kts | 324° |
| 2026-05-07 12:04 | 50.51590 | 14.62410 | 18444 ft | 432 kts | 324° |
| 2026-05-07 12:04 | 50.54072 | 14.59789 | 17829 ft | 428 kts | 324° |
| 2026-05-07 12:04 | 50.56522 | 14.57196 | 17224 ft | 423 kts | 324° |
| 2026-05-07 12:04 | 50.58941 | 14.54633 | 16619 ft | 419 kts | 324° |
| 2026-05-07 12:05 | 50.61329 | 14.52100 | 16021 ft | 414 kts | 323° |
| 2026-05-07 12:05 | 50.63701 | 14.49580 | 15437 ft | 410 kts | 323° |
| 2026-05-07 12:05 | 50.66045 | 14.47086 | 14857 ft | 405 kts | 323° |
| 2026-05-07 12:05 | 50.68361 | 14.44616 | 14247 ft | 401 kts | 323° |
| 2026-05-07 12:06 | 50.70649 | 14.42174 | 13667 ft | 397 kts | 323° |
| 2026-05-07 12:06 | 50.72916 | 14.39755 | 13068 ft | 393 kts | 323° |
| 2026-05-07 12:06 | 50.75165 | 14.37348 | 12463 ft | 390 kts | 323° |
| 2026-05-07 12:06 | 50.77392 | 14.34962 | 11880 ft | 387 kts | 322° |
| 2026-05-07 12:07 | 50.79599 | 14.32597 | 11327 ft | 382 kts | 322° |
| 2026-05-07 12:07 | 50.81769 | 14.30266 | 10913 ft | 371 kts | 322° |
| 2026-05-07 12:07 | 50.83836 | 14.28048 | 10606 ft | 346 kts | 323° |
| 2026-05-07 12:07 | 50.85744 | 14.25999 | 10397 ft | 320 kts | 323° |
| 2026-05-07 12:08 | 50.87512 | 14.24101 | 10245 ft | 295 kts | 322° |
| 2026-05-07 12:08 | 50.89084 | 14.22156 | 10089 ft | 281 kts | 308° |
| 2026-05-07 12:08 | 50.90064 | 14.19588 | 9950 ft | 267 kts | 285° |
| 2026-05-07 12:08 | 50.90517 | 14.16760 | 9678 ft | 265 kts | 279° |
| 2026-05-07 12:09 | 50.90885 | 14.13913 | 9342 ft | 264 kts | 278° |
| 2026-05-07 12:09 | 50.91251 | 14.11066 | 9022 ft | 264 kts | 279° |
| 2026-05-07 12:09 | 50.91622 | 14.08235 | 8696 ft | 263 kts | 279° |
| 2026-05-07 12:09 | 50.91999 | 14.05411 | 8379 ft | 262 kts | 279° |
| 2026-05-07 12:10 | 50.92377 | 14.02609 | 8064 ft | 261 kts | 279° |
| 2026-05-07 12:10 | 50.92759 | 13.99798 | 7743 ft | 260 kts | 279° |
| 2026-05-07 12:10 | 50.93138 | 13.97004 | 7421 ft | 259 kts | 280° |
| 2026-05-07 12:10 | 50.93516 | 13.94226 | 7099 ft | 257 kts | 280° |
| 2026-05-07 12:11 | 50.93891 | 13.91465 | 6783 ft | 256 kts | 280° |
| 2026-05-07 12:11 | 50.94264 | 13.88711 | 6475 ft | 254 kts | 281° |
| 2026-05-07 12:11 | 50.94636 | 13.85978 | 6163 ft | 253 kts | 281° |
| 2026-05-07 12:11 | 50.95003 | 13.83261 | 5846 ft | 252 kts | 281° |
| 2026-05-07 12:12 | 50.95370 | 13.80547 | 5532 ft | 251 kts | 281° |
| 2026-05-07 12:12 | 50.95734 | 13.77843 | 5242 ft | 248 kts | 282° |
| 2026-05-07 12:12 | 50.96088 | 13.75217 | 4937 ft | 238 kts | 281° |
| 2026-05-07 12:12 | 50.96436 | 13.72626 | 4628 ft | 242 kts | 281° |
| 2026-05-07 12:13 | 50.96785 | 13.70020 | 4302 ft | 242 kts | 282° |
| 2026-05-07 12:13 | 50.97133 | 13.67417 | 4237 ft | 241 kts | 282° |
| 2026-05-07 12:13 | 50.97473 | 13.64866 | 4201 ft | 228 kts | 282° |
| 2026-05-07 12:13 | 50.97791 | 13.62484 | 4171 ft | 214 kts | 283° |
| 2026-05-07 12:14 | 50.98170 | 13.60279 | 4094 ft | 201 kts | 300° |
| 2026-05-07 12:14 | 50.99151 | 13.58801 | 4085 ft | 196 kts | 336° |
| 2026-05-07 12:14 | 51.00488 | 13.58593 | 3905 ft | 197 kts | 13° |
| 2026-05-07 12:14 | 51.01629 | 13.59709 | 3652 ft | 193 kts | 46° |
| 2026-05-07 12:15 | 51.02493 | 13.61304 | 3397 ft | 189 kts | 48° |
| 2026-05-07 12:15 | 51.03364 | 13.62809 | 3137 ft | 179 kts | 44° |
| 2026-05-07 12:15 | 51.04232 | 13.64116 | 2925 ft | 163 kts | 41° |
| 2026-05-07 12:15 | 51.05050 | 13.65257 | 2692 ft | 149 kts | 40° |
| 2026-05-07 12:16 | 51.05802 | 13.66284 | 2475 ft | 137 kts | 40° |
| 2026-05-07 12:16 | 51.06518 | 13.67266 | 2300 ft | 134 kts | 41° |
| 2026-05-07 12:16 | 51.07225 | 13.68239 | 2133 ft | 133 kts | 41° |
| 2026-05-07 12:16 | 51.07928 | 13.69211 | 1958 ft | 133 kts | 41° |
| 2026-05-07 12:17 | 51.08632 | 13.70179 | 1792 ft | 133 kts | 41° |
| 2026-05-07 12:17 | 51.09335 | 13.71151 | 1600 ft | 132 kts | 40° |
| 2026-05-07 12:17 | 51.10032 | 13.72120 | 1408 ft | 132 kts | 42° |
| 2026-05-07 12:17 | 51.10724 | 13.73068 | 1223 ft | 131 kts | 39° |
| 2026-05-07 12:18 | 51.11424 | 13.74021 | 1065 ft | 131 kts | 40° |
| 2026-05-07 12:18 | 51.12096 | 13.74950 | 888 ft | 131 kts | 42° |
| 2026-05-07 12:18 | 51.12801 | 13.75931 | 764 ft | 124 kts | 41° |
| 2026-05-07 12:18 | 51.13334 | 13.76664 | 763 ft | 76 kts | 40° |
| 2026-05-07 12:19 | 51.13652 | 13.77100 | 763 ft | 53 kts | 40° |
| 2026-05-07 12:19 | 51.13869 | 13.77397 | 763 ft | 26 kts | 42° |
| 2026-05-07 12:19 | 51.13893 | 13.77515 | 763 ft | 10 kts | 117° |
| 2026-05-07 12:19 | 51.13877 | 13.77552 | 763 ft | 0 kts | 128° |
| 2026-05-07 12:20 | 51.13876 | 13.77555 | 763 ft | 1 kts | 128° |
| 2026-05-07 12:20 | 51.13866 | 13.77575 | 763 ft | 4 kts | 129° |
| 2026-05-07 12:20 | 51.13808 | 13.77681 | 763 ft | 15 kts | 133° |
| 2026-05-07 12:20 | 51.13713 | 13.77664 | 763 ft | 16 kts | 221° |
| 2026-05-07 12:21 | 51.13626 | 13.77545 | 763 ft | 17 kts | 220° |
| 2026-05-07 12:21 | 51.13535 | 13.77418 | 763 ft | 17 kts | 220° |
| 2026-05-07 12:21 | 51.13440 | 13.77288 | 763 ft | 18 kts | 221° |
| 2026-05-07 12:21 | 51.13343 | 13.77154 | 763 ft | 18 kts | 221° |
| 2026-05-07 12:22 | 51.13244 | 13.77016 | 763 ft | 19 kts | 221° |
| 2026-05-07 12:22 | 51.13141 | 13.76876 | 763 ft | 19 kts | 221° |
| 2026-05-07 12:22 | 51.13039 | 13.76734 | 763 ft | 19 kts | 221° |
| 2026-05-07 12:22 | 51.12933 | 13.76589 | 763 ft | 20 kts | 221° |
| 2026-05-07 12:23 | 51.12842 | 13.76467 | 763 ft | 14 kts | 215° |
| 2026-05-07 12:23 | 51.12757 | 13.76519 | 763 ft | 14 kts | 130° |
| 2026-05-07 12:23 | 51.12702 | 13.76616 | 763 ft | 7 kts | 153° |
| 2026-05-07 12:23 | 51.12658 | 13.76587 | 763 ft | 7 kts | 215° |
| 2026-05-07 12:24 | 51.12627 | 13.76544 | 763 ft | 3 kts | 221° |
| 2026-05-07 12:24 | 51.12626 | 13.76543 | 763 ft | 0 kts | 220° |